sensor_id;sensor_type;location;lat;lon;timestamp;P1;durP1;ratioP1;P2;durP2;ratioP2
7179;SDS011;3631;42.152;24.756;2022-12-19T00:01:02;29.47;;;18.50;;
7179;SDS011;3631;42.152;24.756;2022-12-19T00:03:31;28.10;;;18.43;;
7179;SDS011;3631;42.152;24.756;2022-12-19T00:05:59;33.50;;;20.47;;
7179;SDS011;3631;42.152;24.756;2022-12-19T00:08:27;26.63;;;16.00;;
7179;SDS011;3631;42.152;24.756;2022-12-19T00:10:59;28.87;;;17.30;;
7179;SDS011;3631;42.152;24.756;2022-12-19T00:13:28;27.50;;;18.30;;
7179;SDS011;3631;42.152;24.756;2022-12-19T00:15:59;27.03;;;14.43;;
7179;SDS011;3631;42.152;24.756;2022-12-19T00:18:27;25.00;;;17.20;;
7179;SDS011;3631;42.152;24.756;2022-12-19T00:20:55;28.07;;;16.50;;
7179;SDS011;3631;42.152;24.756;2022-12-19T00:23:23;28.27;;;17.73;;
7179;SDS011;3631;42.152;24.756;2022-12-19T00:25:51;30.67;;;18.00;;
7179;SDS011;3631;42.152;24.756;2022-12-19T00:28:18;27.53;;;17.43;;
7179;SDS011;3631;42.152;24.756;2022-12-19T00:30:45;30.00;;;17.83;;
7179;SDS011;3631;42.152;24.756;2022-12-19T00:33:14;32.53;;;19.93;;
7179;SDS011;3631;42.152;24.756;2022-12-19T00:35:40;31.03;;;18.90;;
7179;SDS011;3631;42.152;24.756;2022-12-19T00:38:07;28.03;;;17.80;;
7179;SDS011;3631;42.152;24.756;2022-12-19T00:40:34;29.03;;;17.07;;
7179;SDS011;3631;42.152;24.756;2022-12-19T00:43:01;31.60;;;17.97;;
7179;SDS011;3631;42.152;24.756;2022-12-19T00:45:28;29.07;;;17.43;;
7179;SDS011;3631;42.152;24.756;2022-12-19T00:47:55;26.93;;;16.27;;
7179;SDS011;3631;42.152;24.756;2022-12-19T00:50:23;30.07;;;18.40;;
7179;SDS011;3631;42.152;24.756;2022-12-19T00:52:50;27.67;;;17.27;;
7179;SDS011;3631;42.152;24.756;2022-12-19T00:55:17;29.87;;;17.80;;
7179;SDS011;3631;42.152;24.756;2022-12-19T00:57:44;29.67;;;17.73;;
7179;SDS011;3631;42.152;24.756;2022-12-19T01:00:11;28.07;;;17.37;;
7179;SDS011;3631;42.152;24.756;2022-12-19T01:02:39;31.30;;;16.97;;
7179;SDS011;3631;42.152;24.756;2022-12-19T01:05:06;27.77;;;16.47;;
7179;SDS011;3631;42.152;24.756;2022-12-19T01:07:35;34.43;;;17.80;;
7179;SDS011;3631;42.152;24.756;2022-12-19T01:10:03;28.03;;;16.47;;
7179;SDS011;3631;42.152;24.756;2022-12-19T01:12:31;26.27;;;15.83;;
7179;SDS011;3631;42.152;24.756;2022-12-19T01:15:13;26.63;;;16.27;;
7179;SDS011;3631;42.152;24.756;2022-12-19T01:17:42;26.77;;;16.40;;
7179;SDS011;3631;42.152;24.756;2022-12-19T01:20:09;28.43;;;16.90;;
7179;SDS011;3631;42.152;24.756;2022-12-19T01:22:38;23.00;;;15.87;;
7179;SDS011;3631;42.152;24.756;2022-12-19T01:25:05;25.50;;;14.67;;
7179;SDS011;3631;42.152;24.756;2022-12-19T01:27:32;29.90;;;15.87;;
7179;SDS011;3631;42.152;24.756;2022-12-19T01:30:00;31.30;;;17.03;;
7179;SDS011;3631;42.152;24.756;2022-12-19T01:32:27;30.10;;;17.80;;
7179;SDS011;3631;42.152;24.756;2022-12-19T01:34:54;35.27;;;19.93;;
7179;SDS011;3631;42.152;24.756;2022-12-19T01:37:21;30.37;;;18.10;;
7179;SDS011;3631;42.152;24.756;2022-12-19T01:39:49;34.47;;;18.53;;
7179;SDS011;3631;42.152;24.756;2022-12-19T01:42:16;31.50;;;18.77;;
7179;SDS011;3631;42.152;24.756;2022-12-19T01:45:01;32.17;;;18.03;;
7179;SDS011;3631;42.152;24.756;2022-12-19T01:50:50;28.93;;;16.57;;
7179;SDS011;3631;42.152;24.756;2022-12-19T01:53:20;32.43;;;18.63;;
7179;SDS011;3631;42.152;24.756;2022-12-19T01:55:52;29.80;;;18.23;;
7179;SDS011;3631;42.152;24.756;2022-12-19T01:58:20;33.00;;;19.40;;
7179;SDS011;3631;42.152;24.756;2022-12-19T02:00:47;29.93;;;17.27;;
7179;SDS011;3631;42.152;24.756;2022-12-19T02:03:15;28.83;;;16.77;;
7179;SDS011;3631;42.152;24.756;2022-12-19T02:05:48;30.50;;;18.40;;
7179;SDS011;3631;42.152;24.756;2022-12-19T02:08:16;34.17;;;19.67;;
7179;SDS011;3631;42.152;24.756;2022-12-19T02:10:44;38.47;;;19.23;;
7179;SDS011;3631;42.152;24.756;2022-12-19T02:13:12;31.07;;;18.73;;
7179;SDS011;3631;42.152;24.756;2022-12-19T02:15:42;33.93;;;18.77;;
7179;SDS011;3631;42.152;24.756;2022-12-19T02:18:15;36.60;;;19.83;;
7179;SDS011;3631;42.152;24.756;2022-12-19T02:23:43;28.43;;;16.30;;
7179;SDS011;3631;42.152;24.756;2022-12-19T02:30:05;28.33;;;15.50;;
7179;SDS011;3631;42.152;24.756;2022-12-19T02:32:39;27.73;;;15.77;;
7179;SDS011;3631;42.152;24.756;2022-12-19T02:35:19;25.23;;;14.47;;
7179;SDS011;3631;42.152;24.756;2022-12-19T02:37:51;25.77;;;14.17;;
7179;SDS011;3631;42.152;24.756;2022-12-19T02:40:25;25.37;;;14.73;;
7179;SDS011;3631;42.152;24.756;2022-12-19T02:42:56;23.50;;;14.60;;
7179;SDS011;3631;42.152;24.756;2022-12-19T02:45:24;26.47;;;15.37;;
7179;SDS011;3631;42.152;24.756;2022-12-19T02:47:56;24.90;;;13.80;;
7179;SDS011;3631;42.152;24.756;2022-12-19T02:50:25;19.77;;;11.17;;
7179;SDS011;3631;42.152;24.756;2022-12-19T02:52:52;24.93;;;14.50;;
7179;SDS011;3631;42.152;24.756;2022-12-19T02:55:20;24.27;;;13.53;;
7179;SDS011;3631;42.152;24.756;2022-12-19T02:57:56;23.77;;;14.10;;
7179;SDS011;3631;42.152;24.756;2022-12-19T03:00:43;22.87;;;12.83;;
7179;SDS011;3631;42.152;24.756;2022-12-19T03:03:22;26.47;;;13.30;;
7179;SDS011;3631;42.152;24.756;2022-12-19T03:06:00;21.03;;;13.27;;
7179;SDS011;3631;42.152;24.756;2022-12-19T03:08:35;19.90;;;12.47;;
7179;SDS011;3631;42.152;24.756;2022-12-19T03:11:08;20.77;;;12.67;;
7179;SDS011;3631;42.152;24.756;2022-12-19T03:13:40;22.93;;;12.47;;
7179;SDS011;3631;42.152;24.756;2022-12-19T03:16:11;24.20;;;12.67;;
7179;SDS011;3631;42.152;24.756;2022-12-19T03:18:40;21.33;;;12.90;;
7179;SDS011;3631;42.152;24.756;2022-12-19T03:21:10;23.10;;;13.63;;
7179;SDS011;3631;42.152;24.756;2022-12-19T03:23:43;17.80;;;11.43;;
7179;SDS011;3631;42.152;24.756;2022-12-19T03:26:11;20.73;;;10.77;;
7179;SDS011;3631;42.152;24.756;2022-12-19T03:28:44;22.73;;;13.10;;
7179;SDS011;3631;42.152;24.756;2022-12-19T03:31:15;19.73;;;11.27;;
7179;SDS011;3631;42.152;24.756;2022-12-19T03:33:46;22.33;;;12.30;;
7179;SDS011;3631;42.152;24.756;2022-12-19T03:36:17;23.83;;;13.33;;
7179;SDS011;3631;42.152;24.756;2022-12-19T03:38:49;26.37;;;13.80;;
7179;SDS011;3631;42.152;24.756;2022-12-19T03:41:17;23.40;;;14.50;;
7179;SDS011;3631;42.152;24.756;2022-12-19T03:44:05;25.73;;;12.97;;
7179;SDS011;3631;42.152;24.756;2022-12-19T03:46:33;23.10;;;12.27;;
7179;SDS011;3631;42.152;24.756;2022-12-19T03:49:06;25.30;;;14.50;;
7179;SDS011;3631;42.152;24.756;2022-12-19T03:51:34;24.00;;;13.40;;
7179;SDS011;3631;42.152;24.756;2022-12-19T03:54:08;22.23;;;12.03;;
7179;SDS011;3631;42.152;24.756;2022-12-19T03:56:39;22.73;;;13.27;;
7179;SDS011;3631;42.152;24.756;2022-12-19T03:59:12;21.67;;;10.47;;
7179;SDS011;3631;42.152;24.756;2022-12-19T04:01:44;24.70;;;13.50;;
7179;SDS011;3631;42.152;24.756;2022-12-19T04:04:13;25.27;;;13.83;;
7179;SDS011;3631;42.152;24.756;2022-12-19T04:06:41;25.70;;;13.60;;
7179;SDS011;3631;42.152;24.756;2022-12-19T04:09:10;22.43;;;13.03;;
7179;SDS011;3631;42.152;24.756;2022-12-19T04:11:39;24.20;;;12.87;;
7179;SDS011;3631;42.152;24.756;2022-12-19T04:14:14;26.73;;;14.27;;
7179;SDS011;3631;42.152;24.756;2022-12-19T04:16:47;20.87;;;13.20;;
7179;SDS011;3631;42.152;24.756;2022-12-19T04:19:22;19.47;;;12.33;;
7179;SDS011;3631;42.152;24.756;2022-12-19T04:21:54;21.93;;;13.57;;
7179;SDS011;3631;42.152;24.756;2022-12-19T04:24:28;25.07;;;14.53;;
7179;SDS011;3631;42.152;24.756;2022-12-19T04:26:58;27.73;;;14.13;;
7179;SDS011;3631;42.152;24.756;2022-12-19T04:29:27;27.47;;;13.97;;
7179;SDS011;3631;42.152;24.756;2022-12-19T04:31:56;24.73;;;13.60;;
7179;SDS011;3631;42.152;24.756;2022-12-19T04:34:25;22.97;;;13.83;;
7179;SDS011;3631;42.152;24.756;2022-12-19T04:36:52;25.10;;;13.77;;
7179;SDS011;3631;42.152;24.756;2022-12-19T04:39:19;24.57;;;14.07;;
7179;SDS011;3631;42.152;24.756;2022-12-19T04:41:46;23.93;;;13.27;;
7179;SDS011;3631;42.152;24.756;2022-12-19T04:44:13;27.53;;;14.33;;
7179;SDS011;3631;42.152;24.756;2022-12-19T04:46:40;22.37;;;13.73;;
7179;SDS011;3631;42.152;24.756;2022-12-19T04:49:06;27.30;;;13.93;;
7179;SDS011;3631;42.152;24.756;2022-12-19T04:51:35;25.53;;;14.50;;
7179;SDS011;3631;42.152;24.756;2022-12-19T04:54:02;27.30;;;15.43;;
7179;SDS011;3631;42.152;24.756;2022-12-19T04:56:29;26.63;;;15.00;;
7179;SDS011;3631;42.152;24.756;2022-12-19T04:58:56;28.73;;;14.90;;
7179;SDS011;3631;42.152;24.756;2022-12-19T05:01:23;25.63;;;14.03;;
7179;SDS011;3631;42.152;24.756;2022-12-19T05:03:51;26.37;;;14.80;;
7179;SDS011;3631;42.152;24.756;2022-12-19T05:06:18;27.90;;;16.03;;
7179;SDS011;3631;42.152;24.756;2022-12-19T05:08:47;28.17;;;15.57;;
7179;SDS011;3631;42.152;24.756;2022-12-19T05:11:14;28.23;;;15.17;;
7179;SDS011;3631;42.152;24.756;2022-12-19T05:13:42;25.73;;;16.23;;
7179;SDS011;3631;42.152;24.756;2022-12-19T05:16:09;29.47;;;16.27;;
7179;SDS011;3631;42.152;24.756;2022-12-19T05:18:37;28.53;;;16.47;;
7179;SDS011;3631;42.152;24.756;2022-12-19T05:21:05;27.33;;;15.80;;
7179;SDS011;3631;42.152;24.756;2022-12-19T05:23:32;31.20;;;17.53;;
7179;SDS011;3631;42.152;24.756;2022-12-19T05:26:01;28.53;;;17.30;;
7179;SDS011;3631;42.152;24.756;2022-12-19T05:28:29;26.23;;;14.67;;
7179;SDS011;3631;42.152;24.756;2022-12-19T05:31:04;32.47;;;17.57;;
7179;SDS011;3631;42.152;24.756;2022-12-19T05:33:32;26.53;;;16.57;;
7179;SDS011;3631;42.152;24.756;2022-12-19T05:35:59;28.03;;;16.23;;
7179;SDS011;3631;42.152;24.756;2022-12-19T05:38:26;31.47;;;17.17;;
7179;SDS011;3631;42.152;24.756;2022-12-19T05:40:54;27.67;;;16.60;;
7179;SDS011;3631;42.152;24.756;2022-12-19T05:43:23;27.73;;;15.87;;
7179;SDS011;3631;42.152;24.756;2022-12-19T05:45:50;31.37;;;17.57;;
7179;SDS011;3631;42.152;24.756;2022-12-19T05:48:17;30.90;;;16.17;;
7179;SDS011;3631;42.152;24.756;2022-12-19T05:50:46;29.13;;;17.20;;
7179;SDS011;3631;42.152;24.756;2022-12-19T05:53:13;33.80;;;17.13;;
7179;SDS011;3631;42.152;24.756;2022-12-19T05:55:40;31.83;;;17.93;;
7179;SDS011;3631;42.152;24.756;2022-12-19T05:58:07;29.77;;;17.73;;
7179;SDS011;3631;42.152;24.756;2022-12-19T06:00:35;29.83;;;16.87;;
7179;SDS011;3631;42.152;24.756;2022-12-19T06:03:03;29.93;;;16.50;;
7179;SDS011;3631;42.152;24.756;2022-12-19T06:05:30;29.50;;;16.83;;
7179;SDS011;3631;42.152;24.756;2022-12-19T06:07:57;29.70;;;16.43;;
7179;SDS011;3631;42.152;24.756;2022-12-19T06:10:24;27.10;;;16.27;;
7179;SDS011;3631;42.152;24.756;2022-12-19T06:12:51;33.07;;;17.10;;
7179;SDS011;3631;42.152;24.756;2022-12-19T06:15:18;30.70;;;17.50;;
7179;SDS011;3631;42.152;24.756;2022-12-19T06:17:46;26.87;;;16.47;;
7179;SDS011;3631;42.152;24.756;2022-12-19T06:20:13;26.27;;;15.40;;
7179;SDS011;3631;42.152;24.756;2022-12-19T06:22:40;27.13;;;16.00;;
7179;SDS011;3631;42.152;24.756;2022-12-19T06:25:07;28.57;;;16.27;;
7179;SDS011;3631;42.152;24.756;2022-12-19T06:27:34;26.87;;;15.83;;
7179;SDS011;3631;42.152;24.756;2022-12-19T06:30:01;33.63;;;16.07;;
7179;SDS011;3631;42.152;24.756;2022-12-19T06:32:28;29.80;;;15.93;;
7179;SDS011;3631;42.152;24.756;2022-12-19T06:34:57;29.80;;;15.20;;
7179;SDS011;3631;42.152;24.756;2022-12-19T06:37:24;23.97;;;14.43;;
7179;SDS011;3631;42.152;24.756;2022-12-19T06:39:50;26.03;;;14.43;;
7179;SDS011;3631;42.152;24.756;2022-12-19T06:42:17;25.57;;;14.50;;
7179;SDS011;3631;42.152;24.756;2022-12-19T06:44:49;34.80;;;17.03;;
7179;SDS011;3631;42.152;24.756;2022-12-19T06:47:18;28.03;;;14.80;;
7179;SDS011;3631;42.152;24.756;2022-12-19T06:49:46;22.30;;;13.17;;
7179;SDS011;3631;42.152;24.756;2022-12-19T06:52:15;26.17;;;14.80;;
7179;SDS011;3631;42.152;24.756;2022-12-19T06:54:43;25.43;;;14.40;;
7179;SDS011;3631;42.152;24.756;2022-12-19T06:57:10;22.50;;;13.47;;
7179;SDS011;3631;42.152;24.756;2022-12-19T06:59:36;28.90;;;14.07;;
7179;SDS011;3631;42.152;24.756;2022-12-19T07:02:05;22.33;;;12.70;;
7179;SDS011;3631;42.152;24.756;2022-12-19T07:04:44;36.07;;;16.27;;
7179;SDS011;3631;42.152;24.756;2022-12-19T07:07:13;30.80;;;15.93;;
7179;SDS011;3631;42.152;24.756;2022-12-19T07:09:41;29.00;;;14.33;;
7179;SDS011;3631;42.152;24.756;2022-12-19T07:12:09;27.37;;;14.13;;
7179;SDS011;3631;42.152;24.756;2022-12-19T07:14:36;30.27;;;14.73;;
7179;SDS011;3631;42.152;24.756;2022-12-19T07:17:02;23.57;;;13.93;;
7179;SDS011;3631;42.152;24.756;2022-12-19T07:19:31;25.40;;;13.47;;
7179;SDS011;3631;42.152;24.756;2022-12-19T07:21:59;28.70;;;15.03;;
7179;SDS011;3631;42.152;24.756;2022-12-19T07:24:27;21.90;;;13.93;;
7179;SDS011;3631;42.152;24.756;2022-12-19T07:26:56;23.00;;;14.23;;
7179;SDS011;3631;42.152;24.756;2022-12-19T07:29:23;27.80;;;14.20;;
7179;SDS011;3631;42.152;24.756;2022-12-19T07:31:50;23.67;;;14.27;;
7179;SDS011;3631;42.152;24.756;2022-12-19T07:34:17;26.03;;;14.87;;
7179;SDS011;3631;42.152;24.756;2022-12-19T07:36:44;30.03;;;13.93;;
7179;SDS011;3631;42.152;24.756;2022-12-19T07:39:11;29.00;;;15.27;;
7179;SDS011;3631;42.152;24.756;2022-12-19T07:41:38;27.53;;;15.93;;
7179;SDS011;3631;42.152;24.756;2022-12-19T07:44:07;30.07;;;14.80;;
7179;SDS011;3631;42.152;24.756;2022-12-19T07:46:34;24.20;;;13.67;;
7179;SDS011;3631;42.152;24.756;2022-12-19T07:49:01;24.10;;;12.50;;
7179;SDS011;3631;42.152;24.756;2022-12-19T07:51:28;28.10;;;13.67;;
7179;SDS011;3631;42.152;24.756;2022-12-19T07:53:54;29.17;;;14.57;;
7179;SDS011;3631;42.152;24.756;2022-12-19T07:56:21;27.03;;;14.90;;
7179;SDS011;3631;42.152;24.756;2022-12-19T07:58:48;28.07;;;15.53;;
7179;SDS011;3631;42.152;24.756;2022-12-19T08:01:17;35.10;;;15.50;;
7179;SDS011;3631;42.152;24.756;2022-12-19T08:03:44;32.57;;;15.70;;
7179;SDS011;3631;42.152;24.756;2022-12-19T08:06:11;28.37;;;15.50;;
7179;SDS011;3631;42.152;24.756;2022-12-19T08:08:38;28.03;;;15.70;;
7179;SDS011;3631;42.152;24.756;2022-12-19T08:11:05;29.87;;;15.77;;
7179;SDS011;3631;42.152;24.756;2022-12-19T08:13:33;30.17;;;16.43;;
7179;SDS011;3631;42.152;24.756;2022-12-19T08:16:00;26.67;;;15.43;;
7179;SDS011;3631;42.152;24.756;2022-12-19T08:18:29;25.53;;;14.63;;
7179;SDS011;3631;42.152;24.756;2022-12-19T08:20:55;28.70;;;14.93;;
7179;SDS011;3631;42.152;24.756;2022-12-19T08:23:22;28.87;;;15.47;;
7179;SDS011;3631;42.152;24.756;2022-12-19T08:25:57;26.07;;;14.80;;
7179;SDS011;3631;42.152;24.756;2022-12-19T08:28:24;32.90;;;15.57;;
7179;SDS011;3631;42.152;24.756;2022-12-19T08:30:51;24.47;;;14.30;;
7179;SDS011;3631;42.152;24.756;2022-12-19T08:33:18;25.53;;;14.37;;
7179;SDS011;3631;42.152;24.756;2022-12-19T08:35:47;21.40;;;12.23;;
7179;SDS011;3631;42.152;24.756;2022-12-19T08:38:14;23.80;;;13.20;;
7179;SDS011;3631;42.152;24.756;2022-12-19T08:40:40;25.33;;;14.40;;
7179;SDS011;3631;42.152;24.756;2022-12-19T08:43:07;28.63;;;14.50;;
7179;SDS011;3631;42.152;24.756;2022-12-19T08:45:34;30.67;;;15.87;;
7179;SDS011;3631;42.152;24.756;2022-12-19T08:48:01;27.27;;;14.40;;
7179;SDS011;3631;42.152;24.756;2022-12-19T08:50:28;23.27;;;13.70;;
7179;SDS011;3631;42.152;24.756;2022-12-19T08:52:56;28.13;;;15.00;;
7179;SDS011;3631;42.152;24.756;2022-12-19T08:55:23;26.40;;;13.80;;
7179;SDS011;3631;42.152;24.756;2022-12-19T08:57:50;30.33;;;14.93;;
7179;SDS011;3631;42.152;24.756;2022-12-19T09:00:17;31.13;;;15.53;;
7179;SDS011;3631;42.152;24.756;2022-12-19T09:02:44;24.80;;;14.77;;
7179;SDS011;3631;42.152;24.756;2022-12-19T09:05:11;26.07;;;13.77;;
7179;SDS011;3631;42.152;24.756;2022-12-19T09:07:38;24.33;;;13.37;;
7179;SDS011;3631;42.152;24.756;2022-12-19T09:10:07;25.77;;;12.93;;
7179;SDS011;3631;42.152;24.756;2022-12-19T09:12:34;28.07;;;13.83;;
7179;SDS011;3631;42.152;24.756;2022-12-19T09:15:01;30.57;;;15.90;;
7179;SDS011;3631;42.152;24.756;2022-12-19T09:17:28;28.73;;;14.60;;
7179;SDS011;3631;42.152;24.756;2022-12-19T09:19:55;27.83;;;13.17;;
7179;SDS011;3631;42.152;24.756;2022-12-19T09:22:22;25.40;;;12.83;;
7179;SDS011;3631;42.152;24.756;2022-12-19T09:24:49;31.10;;;16.67;;
7179;SDS011;3631;42.152;24.756;2022-12-19T09:27:17;30.00;;;16.20;;
7179;SDS011;3631;42.152;24.756;2022-12-19T09:29:44;35.87;;;16.93;;
7179;SDS011;3631;42.152;24.756;2022-12-19T09:32:11;29.43;;;14.87;;
7179;SDS011;3631;42.152;24.756;2022-12-19T09:34:38;39.23;;;19.20;;
7179;SDS011;3631;42.152;24.756;2022-12-19T09:37:05;33.17;;;18.07;;
7179;SDS011;3631;42.152;24.756;2022-12-19T09:39:33;27.60;;;14.53;;
7179;SDS011;3631;42.152;24.756;2022-12-19T09:42:04;23.03;;;11.63;;
7179;SDS011;3631;42.152;24.756;2022-12-19T09:44:49;27.27;;;14.00;;
7179;SDS011;3631;42.152;24.756;2022-12-19T09:47:28;20.43;;;12.43;;
7179;SDS011;3631;42.152;24.756;2022-12-19T09:49:56;23.37;;;12.47;;
7179;SDS011;3631;42.152;24.756;2022-12-19T09:52:26;23.83;;;13.20;;
7179;SDS011;3631;42.152;24.756;2022-12-19T09:54:59;23.53;;;12.67;;
7179;SDS011;3631;42.152;24.756;2022-12-19T09:57:32;22.87;;;12.07;;
7179;SDS011;3631;42.152;24.756;2022-12-19T10:00:09;18.23;;;11.20;;
7179;SDS011;3631;42.152;24.756;2022-12-19T10:02:39;18.57;;;11.20;;
7179;SDS011;3631;42.152;24.756;2022-12-19T10:05:14;19.90;;;9.83;;
7179;SDS011;3631;42.152;24.756;2022-12-19T10:07:46;20.47;;;10.77;;
7179;SDS011;3631;42.152;24.756;2022-12-19T10:10:14;20.13;;;11.90;;
7179;SDS011;3631;42.152;24.756;2022-12-19T10:12:52;24.93;;;11.40;;
7179;SDS011;3631;42.152;24.756;2022-12-19T10:15:45;18.83;;;10.90;;
7179;SDS011;3631;42.152;24.756;2022-12-19T10:18:30;29.47;;;15.63;;
7179;SDS011;3631;42.152;24.756;2022-12-19T10:21:08;22.10;;;12.23;;
7179;SDS011;3631;42.152;24.756;2022-12-19T10:23:47;23.50;;;13.00;;
7179;SDS011;3631;42.152;24.756;2022-12-19T10:26:27;16.97;;;10.60;;
7179;SDS011;3631;42.152;24.756;2022-12-19T10:29:02;20.90;;;11.70;;
7179;SDS011;3631;42.152;24.756;2022-12-19T10:31:51;24.43;;;13.93;;
7179;SDS011;3631;42.152;24.756;2022-12-19T10:34:23;20.47;;;11.70;;
7179;SDS011;3631;42.152;24.756;2022-12-19T10:36:56;18.30;;;11.10;;
7179;SDS011;3631;42.152;24.756;2022-12-19T10:39:26;17.47;;;9.50;;
7179;SDS011;3631;42.152;24.756;2022-12-19T10:41:58;17.80;;;9.97;;
7179;SDS011;3631;42.152;24.756;2022-12-19T10:44:34;15.97;;;9.83;;
7179;SDS011;3631;42.152;24.756;2022-12-19T10:47:07;15.67;;;10.03;;
7179;SDS011;3631;42.152;24.756;2022-12-19T10:49:40;19.87;;;10.87;;
7179;SDS011;3631;42.152;24.756;2022-12-19T10:52:08;16.97;;;10.40;;
7179;SDS011;3631;42.152;24.756;2022-12-19T10:54:37;21.57;;;10.57;;
7179;SDS011;3631;42.152;24.756;2022-12-19T10:57:20;20.53;;;10.63;;
7179;SDS011;3631;42.152;24.756;2022-12-19T10:59:53;17.07;;;10.23;;
7179;SDS011;3631;42.152;24.756;2022-12-19T11:02:29;18.30;;;10.33;;
7179;SDS011;3631;42.152;24.756;2022-12-19T11:04:59;19.17;;;10.53;;
7179;SDS011;3631;42.152;24.756;2022-12-19T11:07:27;17.73;;;10.40;;
7179;SDS011;3631;42.152;24.756;2022-12-19T11:09:54;18.43;;;10.77;;
7179;SDS011;3631;42.152;24.756;2022-12-19T11:12:23;19.33;;;9.70;;
7179;SDS011;3631;42.152;24.756;2022-12-19T11:14:53;20.87;;;11.63;;
7179;SDS011;3631;42.152;24.756;2022-12-19T11:17:39;23.73;;;13.63;;
7179;SDS011;3631;42.152;24.756;2022-12-19T11:20:10;19.30;;;11.23;;
7179;SDS011;3631;42.152;24.756;2022-12-19T11:22:39;15.67;;;10.17;;
7179;SDS011;3631;42.152;24.756;2022-12-19T11:25:17;19.03;;;10.33;;
7179;SDS011;3631;42.152;24.756;2022-12-19T11:27:46;17.97;;;9.90;;
7179;SDS011;3631;42.152;24.756;2022-12-19T11:30:18;12.73;;;7.43;;
7179;SDS011;3631;42.152;24.756;2022-12-19T11:33:05;12.93;;;8.57;;
7179;SDS011;3631;42.152;24.756;2022-12-19T11:35:44;12.40;;;7.63;;
7179;SDS011;3631;42.152;24.756;2022-12-19T11:38:13;18.17;;;8.87;;
7179;SDS011;3631;42.152;24.756;2022-12-19T11:40:45;12.83;;;7.70;;
7179;SDS011;3631;42.152;24.756;2022-12-19T11:43:17;9.83;;;6.27;;
7179;SDS011;3631;42.152;24.756;2022-12-19T11:45:53;7.70;;;6.07;;
7179;SDS011;3631;42.152;24.756;2022-12-19T11:48:31;12.70;;;7.13;;
7179;SDS011;3631;42.152;24.756;2022-12-19T11:51:05;9.70;;;6.10;;
7179;SDS011;3631;42.152;24.756;2022-12-19T11:53:41;12.27;;;7.03;;
7179;SDS011;3631;42.152;24.756;2022-12-19T11:56:15;10.77;;;7.70;;
7179;SDS011;3631;42.152;24.756;2022-12-19T11:58:47;11.73;;;7.40;;
7179;SDS011;3631;42.152;24.756;2022-12-19T12:01:17;10.50;;;7.27;;
7179;SDS011;3631;42.152;24.756;2022-12-19T12:03:56;9.73;;;6.63;;
7179;SDS011;3631;42.152;24.756;2022-12-19T12:06:32;10.43;;;6.67;;
7179;SDS011;3631;42.152;24.756;2022-12-19T12:09:04;8.70;;;6.03;;
7179;SDS011;3631;42.152;24.756;2022-12-19T12:11:42;8.07;;;5.30;;
7179;SDS011;3631;42.152;24.756;2022-12-19T12:14:17;9.90;;;6.57;;
7179;SDS011;3631;42.152;24.756;2022-12-19T12:19:43;13.20;;;9.13;;
7179;SDS011;3631;42.152;24.756;2022-12-19T12:22:26;20.20;;;6.70;;
7179;SDS011;3631;42.152;24.756;2022-12-19T12:25:12;8.77;;;5.90;;
7179;SDS011;3631;42.152;24.756;2022-12-19T12:27:49;8.60;;;6.07;;
7179;SDS011;3631;42.152;24.756;2022-12-19T12:30:27;8.13;;;5.40;;
7179;SDS011;3631;42.152;24.756;2022-12-19T12:33:05;8.33;;;5.03;;
7179;SDS011;3631;42.152;24.756;2022-12-19T12:35:44;8.93;;;4.67;;
7179;SDS011;3631;42.152;24.756;2022-12-19T12:38:19;5.07;;;4.40;;
7179;SDS011;3631;42.152;24.756;2022-12-19T12:41:09;6.53;;;4.87;;
7179;SDS011;3631;42.152;24.756;2022-12-19T12:43:51;6.87;;;4.00;;
7179;SDS011;3631;42.152;24.756;2022-12-19T12:46:32;5.67;;;4.53;;
7179;SDS011;3631;42.152;24.756;2022-12-19T12:49:05;6.67;;;4.03;;
7179;SDS011;3631;42.152;24.756;2022-12-19T12:51:41;8.47;;;4.20;;
7179;SDS011;3631;42.152;24.756;2022-12-19T12:54:10;6.63;;;4.77;;
7179;SDS011;3631;42.152;24.756;2022-12-19T12:56:39;9.70;;;5.23;;
7179;SDS011;3631;42.152;24.756;2022-12-19T12:59:18;8.37;;;6.63;;
7179;SDS011;3631;42.152;24.756;2022-12-19T13:01:53;10.30;;;7.90;;
7179;SDS011;3631;42.152;24.756;2022-12-19T13:04:27;6.60;;;3.67;;
7179;SDS011;3631;42.152;24.756;2022-12-19T13:07:03;4.60;;;3.80;;
7179;SDS011;3631;42.152;24.756;2022-12-19T13:09:50;5.33;;;4.80;;
7179;SDS011;3631;42.152;24.756;2022-12-19T13:12:29;6.07;;;3.77;;
7179;SDS011;3631;42.152;24.756;2022-12-19T13:15:19;5.23;;;4.63;;
7179;SDS011;3631;42.152;24.756;2022-12-19T13:20:57;9.57;;;6.83;;
7179;SDS011;3631;42.152;24.756;2022-12-19T13:23:41;22.67;;;6.83;;
7179;SDS011;3631;42.152;24.756;2022-12-19T13:32:09;11.63;;;6.80;;
7179;SDS011;3631;42.152;24.756;2022-12-19T13:34:49;7.63;;;5.63;;
7179;SDS011;3631;42.152;24.756;2022-12-19T13:37:27;5.57;;;4.17;;
7179;SDS011;3631;42.152;24.756;2022-12-19T13:40:01;5.57;;;4.00;;
7179;SDS011;3631;42.152;24.756;2022-12-19T13:42:44;8.17;;;4.57;;
7179;SDS011;3631;42.152;24.756;2022-12-19T13:45:33;7.47;;;4.60;;
7179;SDS011;3631;42.152;24.756;2022-12-19T13:48:01;6.93;;;4.47;;
7179;SDS011;3631;42.152;24.756;2022-12-19T13:50:31;8.43;;;5.20;;
7179;SDS011;3631;42.152;24.756;2022-12-19T13:53:07;7.97;;;4.77;;
7179;SDS011;3631;42.152;24.756;2022-12-19T13:55:39;7.50;;;5.70;;
7179;SDS011;3631;42.152;24.756;2022-12-19T13:58:06;7.40;;;5.20;;
7179;SDS011;3631;42.152;24.756;2022-12-19T14:00:47;10.90;;;5.40;;
7179;SDS011;3631;42.152;24.756;2022-12-19T14:03:15;10.53;;;6.13;;
7179;SDS011;3631;42.152;24.756;2022-12-19T14:05:46;13.37;;;6.53;;
7179;SDS011;3631;42.152;24.756;2022-12-19T14:08:14;11.40;;;5.83;;
7179;SDS011;3631;42.152;24.756;2022-12-19T14:10:45;14.53;;;6.70;;
7179;SDS011;3631;42.152;24.756;2022-12-19T14:13:15;11.77;;;6.13;;
7179;SDS011;3631;42.152;24.756;2022-12-19T14:16:03;9.00;;;5.77;;
7179;SDS011;3631;42.152;24.756;2022-12-19T14:18:31;10.67;;;6.40;;
7179;SDS011;3631;42.152;24.756;2022-12-19T14:21:15;11.03;;;6.20;;
7179;SDS011;3631;42.152;24.756;2022-12-19T14:23:44;12.90;;;6.20;;
7179;SDS011;3631;42.152;24.756;2022-12-19T14:26:13;9.97;;;6.20;;
7179;SDS011;3631;42.152;24.756;2022-12-19T14:28:50;10.60;;;6.33;;
7179;SDS011;3631;42.152;24.756;2022-12-19T14:31:20;15.40;;;7.70;;
7179;SDS011;3631;42.152;24.756;2022-12-19T14:33:49;12.83;;;7.67;;
7179;SDS011;3631;42.152;24.756;2022-12-19T14:36:19;12.47;;;6.60;;
7179;SDS011;3631;42.152;24.756;2022-12-19T14:38:47;9.20;;;6.10;;
7179;SDS011;3631;42.152;24.756;2022-12-19T14:41:31;10.17;;;6.53;;
7179;SDS011;3631;42.152;24.756;2022-12-19T14:44:22;16.97;;;9.00;;
7179;SDS011;3631;42.152;24.756;2022-12-19T14:46:59;16.77;;;8.40;;
7179;SDS011;3631;42.152;24.756;2022-12-19T14:49:30;14.33;;;7.63;;
7179;SDS011;3631;42.152;24.756;2022-12-19T14:52:01;18.17;;;8.67;;
7179;SDS011;3631;42.152;24.756;2022-12-19T14:54:28;10.23;;;7.07;;
7179;SDS011;3631;42.152;24.756;2022-12-19T14:56:58;14.60;;;7.80;;
7179;SDS011;3631;42.152;24.756;2022-12-19T14:59:28;10.70;;;6.83;;
7179;SDS011;3631;42.152;24.756;2022-12-19T15:01:59;11.63;;;7.57;;
7179;SDS011;3631;42.152;24.756;2022-12-19T15:04:30;13.97;;;8.80;;
7179;SDS011;3631;42.152;24.756;2022-12-19T15:07:00;15.63;;;8.77;;
7179;SDS011;3631;42.152;24.756;2022-12-19T15:09:28;14.93;;;8.90;;
7179;SDS011;3631;42.152;24.756;2022-12-19T15:12:03;14.80;;;8.37;;
7179;SDS011;3631;42.152;24.756;2022-12-19T15:15:00;18.77;;;9.47;;
7179;SDS011;3631;42.152;24.756;2022-12-19T15:17:42;21.87;;;10.73;;
7179;SDS011;3631;42.152;24.756;2022-12-19T15:20:09;41.20;;;18.43;;
7179;SDS011;3631;42.152;24.756;2022-12-19T15:22:36;21.20;;;10.53;;